sensor_id;sensor_type;location;lat;lon;timestamp;pressure;altitude;pressure_sealevel;temperature;humidity
11648;BME280;5880;52.342;9.662;2023-02-13T00:02:13;103212.81;;;12.33;57.89
11648;BME280;5880;52.342;9.662;2023-02-13T00:04:40;103222.41;;;12.37;57.96
11648;BME280;5880;52.342;9.662;2023-02-13T00:07:08;103216.59;;;12.32;57.98
11648;BME280;5880;52.342;9.662;2023-02-13T00:09:36;103208.38;;;12.32;58.11
11648;BME280;5880;52.342;9.662;2023-02-13T00:12:04;103216.25;;;12.35;57.75
11648;BME280;5880;52.342;9.662;2023-02-13T00:14:29;103219.81;;;12.36;57.95
11648;BME280;5880;52.342;9.662;2023-02-13T00:16:55;103205.81;;;12.31;57.78
11648;BME280;5880;52.342;9.662;2023-02-13T00:19:21;103210.28;;;12.32;57.47
11648;BME280;5880;52.342;9.662;2023-02-13T00:21:46;103205.44;;;12.34;57.86
11648;BME280;5880;52.342;9.662;2023-02-13T00:24:12;103207.34;;;12.33;57.67
11648;BME280;5880;52.342;9.662;2023-02-13T00:26:38;103205.81;;;12.31;57.69
11648;BME280;5880;52.342;9.662;2023-02-13T00:29:04;103207.69;;;12.30;57.70
11648;BME280;5880;52.342;9.662;2023-02-13T00:31:30;103203.44;;;12.28;57.89
11648;BME280;5880;52.342;9.662;2023-02-13T00:33:56;103205.34;;;12.27;57.96
11648;BME280;5880;52.342;9.662;2023-02-13T00:36:22;103201.91;;;12.25;57.84
11648;BME280;5880;52.342;9.662;2023-02-13T00:38:49;103209.94;;;12.27;57.79
11648;BME280;5880;52.342;9.662;2023-02-13T00:41:16;103204.66;;;12.25;57.94
11648;BME280;5880;52.342;9.662;2023-02-13T00:43:43;103206.56;;;12.24;57.93
11648;BME280;5880;52.342;9.662;2023-02-13T00:46:09;103206.56;;;12.24;57.68
11648;BME280;5880;52.342;9.662;2023-02-13T00:48:35;103214.78;;;12.24;57.84
11648;BME280;5880;52.342;9.662;2023-02-13T00:51:02;103215.63;;;12.25;57.95
11648;BME280;5880;52.342;9.662;2023-02-13T00:53:28;103206.56;;;12.24;58.03
11648;BME280;5880;52.342;9.662;2023-02-13T00:55:54;103206.56;;;12.24;57.91
11648;BME280;5880;52.342;9.662;2023-02-13T00:58:20;103207.41;;;12.25;57.98
11648;BME280;5880;52.342;9.662;2023-02-13T01:00:48;103200.19;;;12.24;58.07
11648;BME280;5880;52.342;9.662;2023-02-13T01:03:15;103201.25;;;12.23;58.13
11648;BME280;5880;52.342;9.662;2023-02-13T01:05:43;103201.25;;;12.23;58.11
11648;BME280;5880;52.342;9.662;2023-02-13T01:08:10;103196.59;;;12.23;58.27
11648;BME280;5880;52.342;9.662;2023-02-13T01:10:38;103198.31;;;12.24;58.08
11648;BME280;5880;52.342;9.662;2023-02-13T01:13:06;103192.84;;;12.24;58.28
11648;BME280;5880;52.342;9.662;2023-02-13T01:15:32;103192.63;;;12.26;58.07
11648;BME280;5880;52.342;9.662;2023-02-13T01:17:58;103185.25;;;12.27;58.26
11648;BME280;5880;52.342;9.662;2023-02-13T01:20:26;103184.25;;;12.28;58.26
11648;BME280;5880;52.342;9.662;2023-02-13T01:22:53;103177.72;;;12.29;58.21
11648;BME280;5880;52.342;9.662;2023-02-13T01:25:19;103178.59;;;12.29;58.16
11648;BME280;5880;52.342;9.662;2023-02-13T01:27:45;103179.59;;;12.28;58.11
11648;BME280;5880;52.342;9.662;2023-02-13T01:30:13;103181.13;;;12.31;57.96
11648;BME280;5880;52.342;9.662;2023-02-13T01:32:42;103185.75;;;12.30;58.01
11648;BME280;5880;52.342;9.662;2023-02-13T01:35:09;103185.09;;;12.28;58.11
11648;BME280;5880;52.342;9.662;2023-02-13T01:37:35;103182.34;;;12.28;57.75
11648;BME280;5880;52.342;9.662;2023-02-13T01:40:02;103180.66;;;12.27;57.78
11648;BME280;5880;52.342;9.662;2023-02-13T01:42:32;103171.75;;;12.25;57.96
11648;BME280;5880;52.342;9.662;2023-02-13T01:45:23;103160.94;;;12.23;58.00
11648;BME280;5880;52.342;9.662;2023-02-13T01:47:56;103172.97;;;12.22;57.90
11648;BME280;5880;52.342;9.662;2023-02-13T01:51:02;103152.78;;;12.15;57.88
11648;BME280;5880;52.342;9.662;2023-02-13T01:54:00;103158.94;;;12.17;57.85
11648;BME280;5880;52.342;9.662;2023-02-13T01:56:35;103168.03;;;12.18;58.00
11648;BME280;5880;52.342;9.662;2023-02-13T01:59:16;103162.53;;;12.18;58.07
11648;BME280;5880;52.342;9.662;2023-02-13T02:01:44;103157.78;;;12.12;58.02
11648;BME280;5880;52.342;9.662;2023-02-13T02:04:20;103169.72;;;12.19;57.99
11648;BME280;5880;52.342;9.662;2023-02-13T02:06:57;103159.97;;;12.16;58.05
11648;BME280;5880;52.342;9.662;2023-02-13T02:09:28;103161.88;;;12.16;58.30
11648;BME280;5880;52.342;9.662;2023-02-13T02:14:53;103159.97;;;12.16;58.24
11648;BME280;5880;52.342;9.662;2023-02-13T02:17:23;103158.94;;;12.17;57.97
11648;BME280;5880;52.342;9.662;2023-02-13T02:20:20;103153.44;;;12.17;58.04
11648;BME280;5880;52.342;9.662;2023-02-13T02:23:27;103150.06;;;12.15;57.85
11648;BME280;5880;52.342;9.662;2023-02-13T02:32:22;103146.97;;;12.10;58.20
11648;BME280;5880;52.342;9.662;2023-02-13T02:40:42;103138.75;;;12.10;58.19
11648;BME280;5880;52.342;9.662;2023-02-13T02:43:32;103133.47;;;12.09;58.37
11648;BME280;5880;52.342;9.662;2023-02-13T02:49:12;103134.16;;;12.11;58.35
11648;BME280;5880;52.342;9.662;2023-02-13T02:52:05;103133.28;;;12.10;58.52
11648;BME280;5880;52.342;9.662;2023-02-13T02:55:14;103130.53;;;12.10;58.11
11648;BME280;5880;52.342;9.662;2023-02-13T02:57:54;103124.88;;;12.12;58.26
11648;BME280;5880;52.342;9.662;2023-02-13T03:00:42;103128.66;;;12.11;58.39
11648;BME280;5880;52.342;9.662;2023-02-13T03:03:47;103115.81;;;12.11;58.58
11648;BME280;5880;52.342;9.662;2023-02-13T03:06:54;103115.81;;;12.11;58.33
11648;BME280;5880;52.342;9.662;2023-02-13T03:09:30;103114.97;;;12.11;58.38
11648;BME280;5880;52.342;9.662;2023-02-13T03:12:22;103121.28;;;12.11;58.31
11648;BME280;5880;52.342;9.662;2023-02-13T03:15:08;103121.28;;;12.11;58.43
11648;BME280;5880;52.342;9.662;2023-02-13T03:17:34;103118.38;;;12.13;58.29
11648;BME280;5880;52.342;9.662;2023-02-13T03:20:42;103123.66;;;12.14;58.29
11648;BME280;5880;52.342;9.662;2023-02-13T03:23:55;103119.38;;;12.12;58.19
11648;BME280;5880;52.342;9.662;2023-02-13T03:26:41;103118.38;;;12.13;58.15
11648;BME280;5880;52.342;9.662;2023-02-13T03:29:30;103128.28;;;12.14;58.47
11648;BME280;5880;52.342;9.662;2023-02-13T03:33:09;103131.22;;;12.12;58.48
11648;BME280;5880;52.342;9.662;2023-02-13T03:42:00;103135.84;;;12.12;58.36
11648;BME280;5880;52.342;9.662;2023-02-13T03:44:56;103122.13;;;12.12;58.35
11648;BME280;5880;52.342;9.662;2023-02-13T03:47:54;103136.53;;;12.14;58.30
11648;BME280;5880;52.342;9.662;2023-02-13T03:50:22;103144.56;;;12.15;58.21
11648;BME280;5880;52.342;9.662;2023-02-13T03:52:59;103133.41;;;12.17;58.18
11648;BME280;5880;52.342;9.662;2023-02-13T03:55:36;103131.34;;;12.19;58.42
11648;BME280;5880;52.342;9.662;2023-02-13T03:58:34;103130.66;;;12.17;58.27
11648;BME280;5880;52.342;9.662;2023-02-13T04:01:25;103120.25;;;12.12;58.20
11648;BME280;5880;52.342;9.662;2023-02-13T04:04:04;103131.50;;;12.17;58.50
11648;BME280;5880;52.342;9.662;2023-02-13T04:06:45;103137.66;;;12.19;58.19
11648;BME280;5880;52.342;9.662;2023-02-13T04:09:14;103128.13;;;12.15;58.50
11648;BME280;5880;52.342;9.662;2023-02-13T04:12:01;103131.16;;;12.20;58.43
11648;BME280;5880;52.342;9.662;2023-02-13T04:17:47;103127.91;;;12.17;58.27
11648;BME280;5880;52.342;9.662;2023-02-13T04:20:14;103120.25;;;12.12;58.31
11648;BME280;5880;52.342;9.662;2023-02-13T04:22:45;103125.00;;;12.18;58.48
11648;BME280;5880;52.342;9.662;2023-02-13T04:25:14;103126.69;;;12.19;58.17
11648;BME280;5880;52.342;9.662;2023-02-13T04:27:41;103123.94;;;12.19;58.22
11648;BME280;5880;52.342;9.662;2023-02-13T04:30:08;103122.94;;;12.20;58.25
11648;BME280;5880;52.342;9.662;2023-02-13T04:32:34;103123.78;;;12.21;58.27
11648;BME280;5880;52.342;9.662;2023-02-13T04:35:00;103116.41;;;12.21;58.04
11648;BME280;5880;52.342;9.662;2023-02-13T04:37:25;103114.50;;;12.22;57.92
11648;BME280;5880;52.342;9.662;2023-02-13T04:39:51;103114.50;;;12.22;58.40
11648;BME280;5880;52.342;9.662;2023-02-13T04:42:17;103111.47;;;12.17;58.16
11648;BME280;5880;52.342;9.662;2023-02-13T04:44:42;103120.88;;;12.22;58.17
11648;BME280;5880;52.342;9.662;2023-02-13T04:47:08;103119.16;;;12.21;58.13
11648;BME280;5880;52.342;9.662;2023-02-13T04:49:34;103120.19;;;12.20;58.06
11648;BME280;5880;52.342;9.662;2023-02-13T04:51:59;103107.50;;;12.19;58.22
11648;BME280;5880;52.342;9.662;2023-02-13T04:54:25;103101.53;;;12.16;57.96
11648;BME280;5880;52.342;9.662;2023-02-13T04:56:51;103109.22;;;12.20;57.90
11648;BME280;5880;52.342;9.662;2023-02-13T04:59:16;103107.72;;;12.18;58.16
11648;BME280;5880;52.342;9.662;2023-02-13T05:01:42;103109.56;;;12.17;58.05
11648;BME280;5880;52.342;9.662;2023-02-13T05:04:08;103105.13;;;12.16;58.26
11648;BME280;5880;52.342;9.662;2023-02-13T05:06:35;103114.22;;;12.17;58.18
11648;BME280;5880;52.342;9.662;2023-02-13T05:09:02;103118.00;;;12.16;57.88
11648;BME280;5880;52.342;9.662;2023-02-13T05:11:28;103114.41;;;12.15;57.95
11648;BME280;5880;52.342;9.662;2023-02-13T05:13:54;103114.41;;;12.15;57.88
11648;BME280;5880;52.342;9.662;2023-02-13T05:16:19;103112.69;;;12.14;58.14
11648;BME280;5880;52.342;9.662;2023-02-13T05:18:45;103117.50;;;12.12;58.02
11648;BME280;5880;52.342;9.662;2023-02-13T05:21:11;103119.38;;;12.12;57.96
11648;BME280;5880;52.342;9.662;2023-02-13T05:23:55;103122.50;;;12.09;58.10
11648;BME280;5880;52.342;9.662;2023-02-13T05:26:21;103128.00;;;12.09;58.23
11648;BME280;5880;52.342;9.662;2023-02-13T05:28:46;103121.66;;;12.08;57.95
11648;BME280;5880;52.342;9.662;2023-02-13T05:31:30;103130.72;;;12.09;58.11
11648;BME280;5880;52.342;9.662;2023-02-13T05:33:56;103132.63;;;12.08;57.86
11648;BME280;5880;52.342;9.662;2023-02-13T05:36:22;103137.22;;;12.08;58.06
11648;BME280;5880;52.342;9.662;2023-02-13T05:38:47;103129.88;;;12.08;58.04
11648;BME280;5880;52.342;9.662;2023-02-13T05:41:13;103133.66;;;12.07;57.92
11648;BME280;5880;52.342;9.662;2023-02-13T05:43:39;103135.53;;;12.07;57.94
11648;BME280;5880;52.342;9.662;2023-02-13T05:46:07;103127.16;;;12.08;58.19
11648;BME280;5880;52.342;9.662;2023-02-13T05:48:34;103139.81;;;12.09;57.86
11648;BME280;5880;52.342;9.662;2023-02-13T05:51:00;103128.84;;;12.09;58.09
11648;BME280;5880;52.342;9.662;2023-02-13T05:53:26;103136.22;;;12.09;58.21
11648;BME280;5880;52.342;9.662;2023-02-13T05:55:54;103135.16;;;12.10;58.14
11648;BME280;5880;52.342;9.662;2023-02-13T05:58:20;103135.53;;;12.07;57.92
11648;BME280;5880;52.342;9.662;2023-02-13T06:00:47;103140.47;;;12.11;57.88
11648;BME280;5880;52.342;9.662;2023-02-13T06:03:13;103140.19;;;12.06;57.89
11648;BME280;5880;52.342;9.662;2023-02-13T06:05:38;103134.69;;;12.06;57.57
11648;BME280;5880;52.342;9.662;2023-02-13T06:08:04;103146.97;;;12.10;57.81
11648;BME280;5880;52.342;9.662;2023-02-13T06:10:30;103151.63;;;12.10;57.96
11648;BME280;5880;52.342;9.662;2023-02-13T06:12:55;103150.78;;;12.09;57.86
11648;BME280;5880;52.342;9.662;2023-02-13T06:15:21;103145.66;;;12.06;58.04
11648;BME280;5880;52.342;9.662;2023-02-13T06:17:47;103140.50;;;12.03;57.73
11648;BME280;5880;52.342;9.662;2023-02-13T06:20:13;103142.03;;;12.06;58.03
11648;BME280;5880;52.342;9.662;2023-02-13T06:22:38;103143.94;;;12.05;57.70
11648;BME280;5880;52.342;9.662;2023-02-13T06:25:04;103158.47;;;12.06;57.79
11648;BME280;5880;52.342;9.662;2023-02-13T06:27:31;103146.00;;;12.03;57.90
11648;BME280;5880;52.342;9.662;2023-02-13T06:29:56;103154.72;;;12.07;57.94
11648;BME280;5880;52.342;9.662;2023-02-13T06:32:22;103152.00;;;12.07;57.94
11648;BME280;5880;52.342;9.662;2023-02-13T06:34:47;103155.94;;;12.04;57.87
11648;BME280;5880;52.342;9.662;2023-02-13T06:37:13;103163.81;;;12.07;57.89
11648;BME280;5880;52.342;9.662;2023-02-13T06:39:39;103162.94;;;12.07;57.89
11648;BME280;5880;52.342;9.662;2023-02-13T06:42:04;103162.28;;;12.04;57.96
11648;BME280;5880;52.342;9.662;2023-02-13T06:44:30;103166.06;;;12.03;57.68
11648;BME280;5880;52.342;9.662;2023-02-13T06:46:55;103156.97;;;12.03;57.76
11648;BME280;5880;52.342;9.662;2023-02-13T06:49:21;103172.41;;;12.04;57.63
11648;BME280;5880;52.342;9.662;2023-02-13T06:51:47;103165.19;;;12.03;57.87
11648;BME280;5880;52.342;9.662;2023-02-13T06:54:12;103166.59;;;11.99;57.85
11648;BME280;5880;52.342;9.662;2023-02-13T06:56:38;103170.50;;;12.04;57.87
11648;BME280;5880;52.342;9.662;2023-02-13T06:59:03;103176.16;;;12.03;57.54
11648;BME280;5880;52.342;9.662;2023-02-13T07:01:29;103181.63;;;12.03;58.02
11648;BME280;5880;52.342;9.662;2023-02-13T07:03:55;103166.41;;;12.00;57.80
11648;BME280;5880;52.342;9.662;2023-02-13T07:06:20;103171.72;;;12.02;57.87
11648;BME280;5880;52.342;9.662;2023-02-13T07:08:46;103173.78;;;12.00;57.69
11648;BME280;5880;52.342;9.662;2023-02-13T07:11:20;103179.94;;;12.02;57.96
11648;BME280;5880;52.342;9.662;2023-02-13T07:13:46;103183.06;;;11.99;57.90
11648;BME280;5880;52.342;9.662;2023-02-13T07:16:12;103169.88;;;11.94;57.80
11648;BME280;5880;52.342;9.662;2023-02-13T07:18:37;103176.69;;;11.98;57.83
11648;BME280;5880;52.342;9.662;2023-02-13T07:21:03;103177.75;;;11.97;57.78
11648;BME280;5880;52.342;9.662;2023-02-13T07:23:29;103180.47;;;11.97;57.92
11648;BME280;5880;52.342;9.662;2023-02-13T07:25:58;103180.47;;;11.97;57.81
11648;BME280;5880;52.342;9.662;2023-02-13T07:28:26;103179.63;;;11.97;57.89
11648;BME280;5880;52.342;9.662;2023-02-13T07:30:51;103181.53;;;11.96;57.85
11648;BME280;5880;52.342;9.662;2023-02-13T07:33:17;103183.38;;;11.96;58.15
11648;BME280;5880;52.342;9.662;2023-02-13T07:35:50;103183.06;;;11.99;58.07
11648;BME280;5880;52.342;9.662;2023-02-13T07:38:17;103187.66;;;11.98;58.03
11648;BME280;5880;52.342;9.662;2023-02-13T07:40:44;103187.50;;;12.00;57.92
11648;BME280;5880;52.342;9.662;2023-02-13T07:43:11;103194.66;;;12.01;57.93
11648;BME280;5880;52.342;9.662;2023-02-13T07:45:37;103195.72;;;12.00;57.93
11648;BME280;5880;52.342;9.662;2023-02-13T07:48:03;103199.97;;;12.02;58.01
11648;BME280;5880;52.342;9.662;2023-02-13T07:50:29;103196.22;;;12.03;57.95
11648;BME280;5880;52.342;9.662;2023-02-13T07:53:00;103200.50;;;12.06;57.85
11648;BME280;5880;52.342;9.662;2023-02-13T07:55:28;103203.03;;;12.08;57.94
11648;BME280;5880;52.342;9.662;2023-02-13T07:57:55;103202.34;;;12.06;58.23
11648;BME280;5880;52.342;9.662;2023-02-13T08:00:21;103193.78;;;12.09;57.88
11648;BME280;5880;52.342;9.662;2023-02-13T08:02:47;103198.91;;;12.12;57.87
11648;BME280;5880;52.342;9.662;2023-02-13T08:05:13;103191.53;;;12.12;58.02
11648;BME280;5880;52.342;9.662;2023-02-13T08:07:39;103198.53;;;12.15;57.85
11648;BME280;5880;52.342;9.662;2023-02-13T08:10:07;103195.78;;;12.15;57.98
11648;BME280;5880;52.342;9.662;2023-02-13T08:12:53;103203.16;;;12.14;58.10
11648;BME280;5880;52.342;9.662;2023-02-13T08:15:19;103209.16;;;12.18;58.36
11648;BME280;5880;52.342;9.662;2023-02-13T08:17:45;103202.63;;;12.19;58.11
11648;BME280;5880;52.342;9.662;2023-02-13T08:20:10;103207.09;;;12.20;57.86
11648;BME280;5880;52.342;9.662;2023-02-13T08:22:37;103205.88;;;12.22;57.93
11648;BME280;5880;52.342;9.662;2023-02-13T08:25:05;103214.78;;;12.24;58.05
11648;BME280;5880;52.342;9.662;2023-02-13T08:27:31;103201.25;;;12.23;58.15
11648;BME280;5880;52.342;9.662;2023-02-13T08:29:58;103215.94;;;12.30;58.19
11648;BME280;5880;52.342;9.662;2023-02-13T08:32:24;103209.22;;;12.33;57.98
11648;BME280;5880;52.342;9.662;2023-02-13T08:34:50;103210.91;;;12.34;58.36
11648;BME280;5880;52.342;9.662;2023-02-13T08:37:16;103215.38;;;12.35;57.87
11648;BME280;5880;52.342;9.662;2023-02-13T08:39:43;103216.06;;;12.37;58.08
11648;BME280;5880;52.342;9.662;2023-02-13T08:42:09;103209.72;;;12.36;57.96
11648;BME280;5880;52.342;9.662;2023-02-13T08:44:35;103202.16;;;12.38;58.26
11648;BME280;5880;52.342;9.662;2023-02-13T08:47:02;103211.94;;;12.41;58.18
11648;BME280;5880;52.342;9.662;2023-02-13T08:49:31;103207.97;;;12.43;57.95
11648;BME280;5880;52.342;9.662;2023-02-13T08:51:58;103209.66;;;12.44;58.02
11648;BME280;5880;52.342;9.662;2023-02-13T08:54:24;103214.13;;;12.45;58.07
11648;BME280;5880;52.342;9.662;2023-02-13T08:56:50;103218.41;;;12.48;58.28
11648;BME280;5880;52.342;9.662;2023-02-13T08:59:16;103220.09;;;12.49;58.09
11648;BME280;5880;52.342;9.662;2023-02-13T09:01:41;103222.66;;;12.51;58.18
11648;BME280;5880;52.342;9.662;2023-02-13T09:04:07;103208.28;;;12.49;58.07
11648;BME280;5880;52.342;9.662;2023-02-13T09:06:33;103219.53;;;12.54;57.92
11648;BME280;5880;52.342;9.662;2023-02-13T09:08:58;103216.44;;;12.57;57.98
11648;BME280;5880;52.342;9.662;2023-02-13T09:11:24;103215.19;;;12.59;58.22
11648;BME280;5880;52.342;9.662;2023-02-13T09:13:54;103212.13;;;12.62;58.09
11648;BME280;5880;52.342;9.662;2023-02-13T09:16:20;103215.03;;;12.61;58.08
11648;BME280;5880;52.342;9.662;2023-02-13T09:18:50;103218.44;;;12.63;57.87
11648;BME280;5880;52.342;9.662;2023-02-13T09:21:19;103205.41;;;12.65;58.10
11648;BME280;5880;52.342;9.662;2023-02-13T09:23:45;103205.03;;;12.68;57.85
11648;BME280;5880;52.342;9.662;2023-02-13T09:26:13;103203.81;;;12.71;57.95
11648;BME280;5880;52.342;9.662;2023-02-13T09:28:40;103200.22;;;12.70;58.06
11648;BME280;5880;52.342;9.662;2023-02-13T09:31:17;103205.66;;;12.78;57.88
11648;BME280;5880;52.342;9.662;2023-02-13T09:33:46;103206.50;;;12.79;57.95
11648;BME280;5880;52.342;9.662;2023-02-13T09:36:16;103200.63;;;12.82;57.99
11648;BME280;5880;52.342;9.662;2023-02-13T09:38:45;103207.47;;;12.86;58.04
11648;BME280;5880;52.342;9.662;2023-02-13T09:41:21;103198.69;;;12.91;57.91
11648;BME280;5880;52.342;9.662;2023-02-13T09:44:38;103211.16;;;12.93;57.98
11648;BME280;5880;52.342;9.662;2023-02-13T09:47:29;103206.16;;;12.97;58.18
11648;BME280;5880;52.342;9.662;2023-02-13T09:50:26;103211.28;;;13.00;58.04
11648;BME280;5880;52.342;9.662;2023-02-13T09:52:55;103209.38;;;13.00;57.93
11648;BME280;5880;52.342;9.662;2023-02-13T09:55:34;103206.25;;;13.03;57.93
11648;BME280;5880;52.342;9.662;2023-02-13T09:58:38;103210.91;;;13.03;57.75
11648;BME280;5880;52.342;9.662;2023-02-13T10:01:29;103212.59;;;13.04;57.62
11648;BME280;5880;52.342;9.662;2023-02-13T10:04:31;103216.41;;;13.03;57.72
11648;BME280;5880;52.342;9.662;2023-02-13T10:10:13;103218.75;;;13.06;57.80
11648;BME280;5880;52.342;9.662;2023-02-13T10:12:55;103225.78;;;13.08;57.80
11648;BME280;5880;52.342;9.662;2023-02-13T10:15:47;103219.94;;;13.12;57.63
11648;BME280;5880;52.342;9.662;2023-02-13T10:18:23;103224.38;;;13.13;57.73
11648;BME280;5880;52.342;9.662;2023-02-13T10:21:00;103216.81;;;13.15;57.57
11648;BME280;5880;52.342;9.662;2023-02-13T10:23:39;103214.56;;;13.18;57.61
11648;BME280;5880;52.342;9.662;2023-02-13T10:26:20;103218.81;;;13.21;57.65
11648;BME280;5880;52.342;9.662;2023-02-13T10:28:52;103221.16;;;13.24;57.74
11648;BME280;5880;52.342;9.662;2023-02-13T10:31:44;103216.34;;;13.26;57.79
11648;BME280;5880;52.342;9.662;2023-02-13T10:34:16;103221.09;;;13.32;57.67
11648;BME280;5880;52.342;9.662;2023-02-13T10:36:46;103213.34;;;13.36;57.45
11648;BME280;5880;52.342;9.662;2023-02-13T10:39:26;103217.63;;;13.38;57.55
11648;BME280;5880;52.342;9.662;2023-02-13T10:42:04;103220.19;;;13.40;57.27
11648;BME280;5880;52.342;9.662;2023-02-13T10:48:25;103219.13;;;13.41;57.53
11648;BME280;5880;52.342;9.662;2023-02-13T10:54:03;103211.38;;;13.44;57.30
11648;BME280;5880;52.342;9.662;2023-02-13T10:57:16;103211.84;;;13.48;57.45
11648;BME280;5880;52.342;9.662;2023-02-13T11:02:29;103225.13;;;13.59;57.32
11648;BME280;5880;52.342;9.662;2023-02-13T11:05:01;103218.38;;;13.62;57.34
11648;BME280;5880;52.342;9.662;2023-02-13T11:07:29;103212.50;;;13.65;57.33
11648;BME280;5880;52.342;9.662;2023-02-13T11:10:02;103216.41;;;13.70;57.26
11648;BME280;5880;52.342;9.662;2023-02-13T11:12:33;103206.06;;;13.72;57.32
11648;BME280;5880;52.342;9.662;2023-02-13T11:15:06;103203.78;;;13.76;57.08
11648;BME280;5880;52.342;9.662;2023-02-13T11:17:39;103202.53;;;13.79;57.02
11648;BME280;5880;52.342;9.662;2023-02-13T11:20:35;103198.56;;;13.81;57.08
11648;BME280;5880;52.342;9.662;2023-02-13T11:26:03;103196.47;;;13.83;56.88
11648;BME280;5880;52.342;9.662;2023-02-13T11:28:34;103193.06;;;13.81;57.14
11648;BME280;5880;52.342;9.662;2023-02-13T11:33:58;103190.22;;;13.89;56.98
11648;BME280;5880;52.342;9.662;2023-02-13T11:36:33;103192.56;;;13.92;56.61
11648;BME280;5880;52.342;9.662;2023-02-13T11:39:11;103189.38;;;13.89;56.58
11648;BME280;5880;52.342;9.662;2023-02-13T11:41:45;103197.22;;;13.92;56.48
11648;BME280;5880;52.342;9.662;2023-02-13T11:44:27;103186.03;;;13.93;56.52
11648;BME280;5880;52.342;9.662;2023-02-13T11:46:57;103179.47;;;13.94;56.53
11648;BME280;5880;52.342;9.662;2023-02-13T11:49:29;103183.75;;;13.97;56.39
11648;BME280;5880;52.342;9.662;2023-02-13T11:52:23;103180.53;;;13.93;56.25
11648;BME280;5880;52.342;9.662;2023-02-13T11:55:01;103181.84;;;13.98;56.07
11648;BME280;5880;52.342;9.662;2023-02-13T11:57:35;103182.72;;;13.98;56.07
11648;BME280;5880;52.342;9.662;2023-02-13T12:00:26;103182.72;;;13.98;56.07
11648;BME280;5880;52.342;9.662;2023-02-13T12:02:52;103176.34;;;13.98;56.38
11648;BME280;5880;52.342;9.662;2023-02-13T12:05:26;103169.22;;;14.03;56.34
11648;BME280;5880;52.342;9.662;2023-02-13T12:07:59;103175.38;;;14.05;56.04
11648;BME280;5880;52.342;9.662;2023-02-13T12:10:31;103171.78;;;14.05;55.92
11648;BME280;5880;52.342;9.662;2023-02-13T12:13:26;103169.88;;;14.05;56.06
11648;BME280;5880;52.342;9.662;2023-02-13T12:16:13;103169.69;;;14.07;56.06
11648;BME280;5880;52.342;9.662;2023-02-13T12:18:48;103155.94;;;14.07;56.05
11648;BME280;5880;52.342;9.662;2023-02-13T12:24:18;103175.25;;;14.13;56.22
11648;BME280;5880;52.342;9.662;2023-02-13T12:27:12;103160.25;;;14.16;55.89
11648;BME280;5880;52.342;9.662;2023-02-13T12:33:10;103149.25;;;14.16;55.64
11648;BME280;5880;52.342;9.662;2023-02-13T12:39:02;103146.31;;;14.18;55.84
11648;BME280;5880;52.342;9.662;2023-02-13T12:41:48;103148.00;;;14.19;55.82
11648;BME280;5880;52.342;9.662;2023-02-13T12:47:45;103137.50;;;14.22;55.61
11648;BME280;5880;52.342;9.662;2023-02-13T12:50:28;103140.22;;;14.22;55.69
11648;BME280;5880;52.342;9.662;2023-02-13T12:56:11;103134.53;;;14.24;55.61
11648;BME280;5880;52.342;9.662;2023-02-13T12:59:06;103137.09;;;14.25;55.64
11648;BME280;5880;52.342;9.662;2023-02-13T13:16:27;103123.94;;;14.42;55.62
11648;BME280;5880;52.342;9.662;2023-02-13T13:22:21;103116.72;;;14.41;55.48
11648;BME280;5880;52.342;9.662;2023-02-13T13:25:30;103114.03;;;14.48;55.34
11648;BME280;5880;52.342;9.662;2023-02-13T13:28:04;103104.28;;;14.45;55.25
11648;BME280;5880;52.342;9.662;2023-02-13T13:30:34;103108.34;;;14.49;55.19
11648;BME280;5880;52.342;9.662;2023-02-13T13:33:16;103110.69;;;14.52;55.04
11648;BME280;5880;52.342;9.662;2023-02-13T13:39:15;103109.84;;;14.52;54.84
11648;BME280;5880;52.342;9.662;2023-02-13T13:42:04;103107.69;;;14.47;54.97
11648;BME280;5880;52.342;9.662;2023-02-13T13:50:05;103100.38;;;14.40;54.77
11648;BME280;5880;52.342;9.662;2023-02-13T13:53:06;103089.19;;;14.41;54.68
11648;BME280;5880;52.342;9.662;2023-02-13T13:58:58;103087.88;;;14.37;54.59
11648;BME280;5880;52.342;9.662;2023-02-13T14:01:29;103080.69;;;14.36;54.73
11648;BME280;5880;52.342;9.662;2023-02-13T14:09:42;103073.22;;;14.30;54.29
11648;BME280;5880;52.342;9.662;2023-02-13T14:14:49;103066.81;;;14.23;54.19
11648;BME280;5880;52.342;9.662;2023-02-13T14:20:41;103069.56;;;14.23;54.29
11648;BME280;5880;52.342;9.662;2023-02-13T14:25:46;103071.22;;;14.17;54.23
11648;BME280;5880;52.342;9.662;2023-02-13T14:28:24;103071.00;;;14.19;54.35
11648;BME280;5880;52.342;9.662;2023-02-13T14:31:06;103069.31;;;14.18;54.12
11648;BME280;5880;52.342;9.662;2023-02-13T14:33:33;103070.75;;;14.13;54.10
11648;BME280;5880;52.342;9.662;2023-02-13T14:36:19;103068.56;;;14.09;53.97
11648;BME280;5880;52.342;9.662;2023-02-13T14:38:56;103063.94;;;14.09;54.10
11648;BME280;5880;52.342;9.662;2023-02-13T14:41:42;103072.00;;;14.11;54.12
11648;BME280;5880;52.342;9.662;2023-02-13T14:44:48;103062.63;;;14.05;54.28
11648;BME280;5880;52.342;9.662;2023-02-13T14:47:34;103066.81;;;14.01;54.15
11648;BME280;5880;52.342;9.662;2023-02-13T14:50:04;103063.22;;;14.01;54.14
11648;BME280;5880;52.342;9.662;2023-02-13T14:52:37;103070.88;;;14.05;54.02
11648;BME280;5880;52.342;9.662;2023-02-13T14:55:30;103065.38;;;14.05;53.94
11648;BME280;5880;52.342;9.662;2023-02-13T14:58:11;103066.41;;;14.04;53.98
11648;BME280;5880;52.342;9.662;2023-02-13T15:00:51;103064.91;;;14.02;53.89
11648;BME280;5880;52.342;9.662;2023-02-13T15:06:13;103060.00;;;13.97;53.79
11648;BME280;5880;52.342;9.662;2023-02-13T15:08:51;103070.16;;;13.97;53.95
11648;BME280;5880;52.342;9.662;2023-02-13T15:11:40;103064.84;;;13.95;53.88
11648;BME280;5880;52.342;9.662;2023-02-13T15:14:19;103062.09;;;13.95;53.82
11648;BME280;5880;52.342;9.662;2023-02-13T15:16:52;103068.84;;;13.92;53.75
11648;BME280;5880;52.342;9.662;2023-02-13T15:19:21;103068.19;;;13.90;53.63
11648;BME280;5880;52.342;9.662;2023-02-13T15:21:55;103066.66;;;13.88;53.54
11648;BME280;5880;52.342;9.662;2023-02-13T15:24:23;103066.66;;;13.88;53.72